createdAt,value
2018-08-28T00:01:33.968Z,73.03
2018-08-28T00:04:03.707Z,73.55
2018-08-28T00:06:32.076Z,73.28
2018-08-28T00:09:00.496Z,73.28
2018-08-28T00:11:30.223Z,73.38
2018-08-28T00:13:58.548Z,74.12
2018-08-28T00:16:27.031Z,74.18
2018-08-28T00:18:55.341Z,74.02
2018-08-28T00:21:24.562Z,74.42
2018-08-28T00:23:53.124Z,74.21
2018-08-28T00:26:21.470Z,75.07
2018-08-28T00:28:49.748Z,75.24
2018-08-28T00:31:18.424Z,75.42
2018-08-28T00:33:47.077Z,75.92
2018-08-28T00:36:16.274Z,75.55
2018-08-28T00:38:44.615Z,76.03
2018-08-28T00:41:13.304Z,76.44
2018-08-28T00:43:42.093Z,76.28
2018-08-28T00:46:11.350Z,76.63
2018-08-28T00:48:39.566Z,77.31
2018-08-28T00:51:08.148Z,77.66
2018-08-28T00:53:36.392Z,77.54
2018-08-28T00:56:05.019Z,77.61
2018-08-28T00:58:33.457Z,77.50
2018-08-28T01:01:02.252Z,78.44
2018-08-28T01:03:30.838Z,78.38
2018-08-28T01:05:59.828Z,78.84
2018-08-28T01:08:28.064Z,79.01
2018-08-28T01:10:56.293Z,79.73
2018-08-28T01:13:24.790Z,79.53
2018-08-28T01:15:53.000Z,79.96
2018-08-28T01:18:21.752Z,78.90
2018-08-28T01:20:51.112Z,78.27
2018-08-28T01:23:21.668Z,78.63
2018-08-28T01:25:50.487Z,78.99
2018-08-28T01:28:19.192Z,79.23
2018-08-28T01:30:47.744Z,79.41
2018-08-28T01:33:16.645Z,79.57
2018-08-28T01:35:44.914Z,79.63
2018-08-28T01:38:14.247Z,79.28
2018-08-28T01:40:42.665Z,79.74
2018-08-28T01:43:16.588Z,79.59
2018-08-28T01:45:45.976Z,79.98
2018-08-28T01:48:14.597Z,79.62
2018-08-28T01:50:42.895Z,80.35
2018-08-28T01:53:11.594Z,80.46
2018-08-28T01:55:40.220Z,80.75
2018-08-28T01:58:08.483Z,80.64
2018-08-28T02:00:37.032Z,81.35
2018-08-28T02:03:05.582Z,81.59
2018-08-28T02:05:34.236Z,79.86
2018-08-28T02:08:02.543Z,80.20
2018-08-28T02:10:31.368Z,80.11
2018-08-28T02:13:00.313Z,80.41
2018-08-28T02:15:28.605Z,80.22
2018-08-28T02:17:56.855Z,79.88
2018-08-28T02:20:25.828Z,79.30
2018-08-28T02:22:54.047Z,79.42
2018-08-28T02:25:22.921Z,78.47
2018-08-28T02:27:51.529Z,77.02
2018-08-28T02:30:20.333Z,76.50
2018-08-28T02:32:48.918Z,76.37
2018-08-28T02:35:17.214Z,76.11
2018-08-28T02:37:45.560Z,75.99
2018-08-28T02:40:14.120Z,76.27
2018-08-28T02:42:42.335Z,75.67
2018-08-28T02:45:10.601Z,74.69
2018-08-28T02:47:39.275Z,75.24
2018-08-28T02:50:07.547Z,74.98
2018-08-28T02:52:36.248Z,75.58
2018-08-28T02:55:04.712Z,76.12
2018-08-28T02:57:33.614Z,76.84
2018-08-28T03:00:01.850Z,76.81
2018-08-28T03:02:30.656Z,76.99
2018-08-28T03:04:59.240Z,76.82
2018-08-28T03:07:28.028Z,77.02
2018-08-28T03:09:56.955Z,77.58
2018-08-28T03:12:25.545Z,78.07
2018-08-28T03:14:53.876Z,79.40
2018-08-28T03:17:22.148Z,79.27
2018-08-28T03:19:50.729Z,79.53
2018-08-28T03:22:19.940Z,79.01
2018-08-28T03:24:48.391Z,79.25
2018-08-28T03:27:16.812Z,79.53
2018-08-28T03:29:45.051Z,79.81
2018-08-28T03:32:14.109Z,79.91
2018-08-28T03:34:42.964Z,79.96
2018-08-28T03:37:11.802Z,79.98
2018-08-28T03:39:40.334Z,80.69
2018-08-28T03:42:08.918Z,80.71
2018-08-28T03:44:37.159Z,80.61
2018-08-28T03:47:05.547Z,81.22
2018-08-28T03:49:33.858Z,80.96
2018-08-28T03:52:02.773Z,81.48
2018-08-28T03:54:31.425Z,81.33
2018-08-28T03:57:00.008Z,81.68
2018-08-28T03:59:28.318Z,81.63
2018-08-28T04:01:56.824Z,82.11
2018-08-28T04:04:25.355Z,81.81
2018-08-28T04:06:55.375Z,81.77
2018-08-28T04:09:24.909Z,81.91
2018-08-28T04:11:54.588Z,81.67
2018-08-28T04:14:23.479Z,81.54
2018-08-28T04:16:52.558Z,81.97
2018-08-28T04:19:20.891Z,81.98
2018-08-28T04:21:49.157Z,81.69
2018-08-28T04:24:18.380Z,82.12
2018-08-28T04:26:46.941Z,81.89
2018-08-28T04:29:15.179Z,81.78
2018-08-28T04:31:44.112Z,82.01
2018-08-28T04:34:12.338Z,82.14
2018-08-28T04:36:40.568Z,82.57
2018-08-28T04:39:09.525Z,82.55
2018-08-28T04:41:37.843Z,82.06
2018-08-28T04:44:06.328Z,82.50
2018-08-28T04:46:34.696Z,82.71
2018-08-28T04:49:03.337Z,82.25
2018-08-28T04:51:32.336Z,82.63
2018-08-28T04:54:00.598Z,82.18
2018-08-28T04:56:29.086Z,82.03
2018-08-28T04:58:57.332Z,81.92
2018-08-28T05:01:26.216Z,82.30
2018-08-28T05:03:54.731Z,81.59
2018-08-28T05:06:23.090Z,81.71
2018-08-28T05:08:51.504Z,80.79
2018-08-28T05:11:20.547Z,80.67
2018-08-28T05:13:49.304Z,80.39
2018-08-28T05:16:17.512Z,80.22
2018-08-28T05:18:46.291Z,79.78
2018-08-28T05:21:14.973Z,78.99
2018-08-28T05:23:43.403Z,79.20
2018-08-28T05:26:12.249Z,78.72
2018-08-28T05:28:40.688Z,77.69
2018-08-28T05:31:09.660Z,77.45
2018-08-28T05:33:38.268Z,77.67
2018-08-28T05:36:07.910Z,77.30
2018-08-28T05:38:36.285Z,77.91
2018-08-28T05:41:04.978Z,77.83
2018-08-28T05:43:33.885Z,77.05
2018-08-28T05:46:03.701Z,76.52
2018-08-28T05:48:32.343Z,77.19
2018-08-28T05:51:01.873Z,76.77
2018-08-28T05:53:31.022Z,76.66
2018-08-28T05:55:59.541Z,75.90
2018-08-28T05:58:28.212Z,75.27
2018-08-28T06:00:56.701Z,74.08
2018-08-28T06:03:26.015Z,74.38
2018-08-28T06:05:55.454Z,73.90
2018-08-28T06:08:24.760Z,73.41
2018-08-28T06:10:53.063Z,73.49
2018-08-28T06:13:21.693Z,73.02
2018-08-28T06:15:50.272Z,72.61
2018-08-28T06:18:18.626Z,72.37
2018-08-28T06:20:47.037Z,72.21
2018-08-28T06:23:15.949Z,71.29
2018-08-28T06:25:44.472Z,71.19
2018-08-28T06:28:13.019Z,70.69
2018-08-28T06:30:41.796Z,70.69
2018-08-28T06:33:10.387Z,70.56
2018-08-28T06:35:38.984Z,69.74
2018-08-28T06:38:07.317Z,69.21
2018-08-28T06:40:35.592Z,68.77
2018-08-28T06:43:04.057Z,68.84
2018-08-28T06:45:34.579Z,67.45
2018-08-28T06:48:02.852Z,69.03
2018-08-28T06:50:31.367Z,69.69
2018-08-28T06:52:59.713Z,69.73
2018-08-28T06:55:28.260Z,69.10
2018-08-28T06:57:56.498Z,68.80
2018-08-28T07:00:24.770Z,67.52
2018-08-28T07:02:53.676Z,65.90
2018-08-28T07:05:22.013Z,64.75
2018-08-28T07:07:51.918Z,63.87
2018-08-28T07:10:20.273Z,63.75
2018-08-28T07:12:49.784Z,63.15
2018-08-28T07:15:18.358Z,63.29
2018-08-28T07:17:47.761Z,62.80
2018-08-28T07:20:16.744Z,62.57
2018-08-28T07:22:45.177Z,62.60
2018-08-28T07:25:15.316Z,61.36
2018-08-28T07:27:43.590Z,62.22
2018-08-28T07:30:12.458Z,61.63
2018-08-28T07:32:41.108Z,61.58
2018-08-28T07:35:10.060Z,60.86
2018-08-28T07:37:38.745Z,60.72
2018-08-28T07:40:08.627Z,59.97
2018-08-28T07:42:37.489Z,59.83
2018-08-28T07:45:06.048Z,59.33
2018-08-28T07:47:34.982Z,58.72
2018-08-28T07:50:03.800Z,57.82
2018-08-28T07:52:32.335Z,58.02
2018-08-28T07:55:00.882Z,57.24
2018-08-28T07:57:29.887Z,57.70
2018-08-28T07:59:58.401Z,57.15
2018-08-28T08:02:26.987Z,55.63
2018-08-28T08:04:56.210Z,54.66
2018-08-28T08:07:25.873Z,54.18
2018-08-28T08:09:54.542Z,54.66
2018-08-28T08:12:22.801Z,53.29
2018-08-28T08:14:52.475Z,51.13
2018-08-28T08:17:23.058Z,52.76
2018-08-28T08:19:52.108Z,51.89
2018-08-28T08:22:24.546Z,50.49
2018-08-28T08:24:56.484Z,52.35
2018-08-28T08:27:27.377Z,52.54
2018-08-28T08:29:56.199Z,53.65
2018-08-28T08:32:26.117Z,52.33
2018-08-28T08:34:54.653Z,53.08
2018-08-28T08:37:25.106Z,51.78
2018-08-28T08:39:53.687Z,51.57
2018-08-28T08:42:22.108Z,51.07
2018-08-28T08:44:50.456Z,51.17
2018-08-28T08:47:18.833Z,53.07
2018-08-28T08:49:47.328Z,53.54
2018-08-28T08:52:15.624Z,52.73
2018-08-28T08:54:44.172Z,52.29
2018-08-28T08:57:12.491Z,51.21
2018-08-28T08:59:40.720Z,52.58
2018-08-28T09:02:08.954Z,52.63
2018-08-28T09:04:37.411Z,50.95
2018-08-28T09:07:05.661Z,50.43
2018-08-28T09:09:34.218Z,49.27
2018-08-28T09:12:02.707Z,48.81
2018-08-28T09:14:31.089Z,48.32
2018-08-28T09:16:59.366Z,48.07
2018-08-28T09:19:28.592Z,47.58
2018-08-28T09:21:56.929Z,47.13
2018-08-28T09:24:25.296Z,47.57
2018-08-28T09:26:53.710Z,47.89
2018-08-28T09:29:22.117Z,46.61
2018-08-28T09:31:50.407Z,45.87
2018-08-28T09:34:18.977Z,46.40
2018-08-28T09:36:48.477Z,45.80
2018-08-28T09:39:17.048Z,44.89
2018-08-28T09:41:46.401Z,46.02
2018-08-28T09:44:15.002Z,44.84
2018-08-28T09:46:43.528Z,44.65
2018-08-28T09:49:11.728Z,44.09
2018-08-28T09:51:40.525Z,44.21
2018-08-28T09:54:10.682Z,43.93
2018-08-28T09:56:40.254Z,43.46
2018-08-28T09:59:09.878Z,43.20
2018-08-28T10:01:45.765Z,43.99
2018-08-28T10:04:16.977Z,43.60
2018-08-28T10:06:48.021Z,43.89
2018-08-28T10:09:17.865Z,43.94
2018-08-28T10:11:46.846Z,42.88
2018-08-28T10:14:16.519Z,42.59
2018-08-28T10:16:46.075Z,40.89
2018-08-28T10:19:15.639Z,40.73
2018-08-28T10:21:44.762Z,41.44
2018-08-28T10:24:15.722Z,41.20
2018-08-28T10:26:44.422Z,41.46
2018-08-28T10:29:14.426Z,41.50
2018-08-28T10:31:43.045Z,41.37
2018-08-28T10:34:11.494Z,40.89
2018-08-28T10:36:41.182Z,39.97
2018-08-28T10:39:10.553Z,38.76
2018-08-28T10:41:40.687Z,38.54
2018-08-28T10:44:09.178Z,37.80
2018-08-28T10:46:51.094Z,38.15
2018-08-28T10:49:21.933Z,38.52
2018-08-28T10:51:51.282Z,38.99
2018-08-28T10:54:21.732Z,39.44
2018-08-28T10:56:51.153Z,37.92
2018-08-28T10:59:20.764Z,39.45
2018-08-28T11:01:49.892Z,39.74
2018-08-28T11:04:21.510Z,40.20
2018-08-28T11:06:51.349Z,39.64
2018-08-28T11:09:20.174Z,39.97
2018-08-28T11:11:49.204Z,39.53
2018-08-28T11:14:19.281Z,39.73
2018-08-28T11:16:49.556Z,39.34
2018-08-28T11:19:19.044Z,39.53
2018-08-28T11:21:48.892Z,38.08
2018-08-28T11:24:18.492Z,38.54
2018-08-28T11:26:47.215Z,36.97
2018-08-28T11:29:16.193Z,37.49
2018-08-28T11:31:44.790Z,36.90
2018-08-28T11:34:14.272Z,36.62
2018-08-28T11:36:46.653Z,36.80
2018-08-28T11:39:17.080Z,36.58
2018-08-28T11:41:45.589Z,36.18
2018-08-28T11:44:14.530Z,35.88
2018-08-28T11:46:43.323Z,36.09
2018-08-28T11:49:11.977Z,36.57
2018-08-28T11:51:43.749Z,36.65
2018-08-28T11:54:13.875Z,35.47
2018-08-28T11:56:42.298Z,34.48
2018-08-28T11:59:12.397Z,34.73
2018-08-28T12:01:40.921Z,35.04
2018-08-28T12:04:09.710Z,35.52
2018-08-28T12:06:39.280Z,35.59
2018-08-28T12:09:08.801Z,35.79
2018-08-28T12:11:37.421Z,36.84
2018-08-28T12:14:06.255Z,36.97
2018-08-28T12:16:35.807Z,37.50
2018-08-28T12:19:04.859Z,37.97
2018-08-28T12:21:33.570Z,37.48
2018-08-28T12:24:02.661Z,36.05
2018-08-28T12:26:31.150Z,35.59
2018-08-28T12:29:01.816Z,35.25
2018-08-28T12:31:30.155Z,35.14
2018-08-28T12:33:59.490Z,34.60
2018-08-28T12:36:29.459Z,34.26
2018-08-28T12:38:58.093Z,34.62
2018-08-28T12:41:27.753Z,34.31
2018-08-28T12:43:57.076Z,33.91
2018-08-28T12:46:26.464Z,33.93
2018-08-28T12:48:55.126Z,32.81
2018-08-28T12:51:24.983Z,33.91
2018-08-28T12:53:54.366Z,32.51
2018-08-28T12:56:23.439Z,33.40
2018-08-28T12:58:53.024Z,33.60
2018-08-28T13:01:21.284Z,32.93
2018-08-28T13:03:50.431Z,33.47
2018-08-28T13:06:19.491Z,31.64
2018-08-28T13:08:48.786Z,30.35
2018-08-28T13:11:17.169Z,30.56
2018-08-28T13:13:45.973Z,30.37
2018-08-28T13:16:14.996Z,30.84
2018-08-28T13:18:43.543Z,29.15
2018-08-28T13:21:12.117Z,27.89
2018-08-28T13:23:40.696Z,26.56
2018-08-28T13:26:09.481Z,24.90
2018-08-28T13:28:38.119Z,24.92
2018-08-28T13:31:06.619Z,25.53
2018-08-28T13:33:35.664Z,24.19
2018-08-28T13:36:04.220Z,22.88
2018-08-28T13:38:32.582Z,23.21
2018-08-28T13:41:01.198Z,21.61
2018-08-28T13:43:29.392Z,20.79
2018-08-28T13:45:57.943Z,22.84
2018-08-28T13:48:26.326Z,23.06
2018-08-28T13:50:54.684Z,22.27
2018-08-28T13:53:33.046Z,20.72
2018-08-28T13:56:02.390Z,19.99
2018-08-28T13:58:31.128Z,20.75
2018-08-28T14:01:00.898Z,18.89
2018-08-28T14:03:29.756Z,18.38
2018-08-28T14:06:05.621Z,18.27
2018-08-28T14:08:34.293Z,19.10
2018-08-28T14:11:02.904Z,19.43
2018-08-28T14:13:31.622Z,18.57
2018-08-28T14:15:59.781Z,17.80
2018-08-28T14:18:28.352Z,18.70
2018-08-28T14:20:56.747Z,19.45
2018-08-28T14:23:25.452Z,19.38
2018-08-28T14:25:54.310Z,18.44
2018-08-28T14:28:22.659Z,18.02
2018-08-28T14:30:52.527Z,17.02
2018-08-28T14:33:20.674Z,16.73
2018-08-28T14:35:49.705Z,18.36
2018-08-28T14:38:18.277Z,17.68
2018-08-28T14:40:46.921Z,17.20
2018-08-28T14:43:17.096Z,18.82
2018-08-28T14:45:45.493Z,18.39
2018-08-28T14:48:14.910Z,19.17
2018-08-28T14:50:43.662Z,18.16
2018-08-28T14:53:15.675Z,17.93
2018-08-28T14:55:44.109Z,18.92
2018-08-28T14:58:12.895Z,16.81
2018-08-28T15:00:41.565Z,17.13
2018-08-28T15:03:09.949Z,15.88
2018-08-28T15:05:38.196Z,16.83
2018-08-28T15:08:07.495Z,18.14
2018-08-28T15:10:37.081Z,18.47
2018-08-28T15:13:06.060Z,19.59
2018-08-28T15:15:34.313Z,18.27
2018-08-28T15:18:02.612Z,17.01
2018-08-28T15:20:31.296Z,16.45
2018-08-28T15:23:00.981Z,18.19
2018-08-28T15:25:30.698Z,17.84
2018-08-28T15:27:59.177Z,18.17
2018-08-28T15:30:27.530Z,18.39
2018-08-28T15:32:56.734Z,16.79
2018-08-28T15:35:25.777Z,16.42
2018-08-28T15:37:54.024Z,16.94
2018-08-28T15:40:23.150Z,17.29
2018-08-28T15:42:51.508Z,17.58
2018-08-28T15:45:20.083Z,17.23
2018-08-28T15:47:48.805Z,17.57
2018-08-28T15:50:18.339Z,18.53
2018-08-28T15:52:47.258Z,17.81
2018-08-28T15:55:15.976Z,18.41
2018-08-28T15:57:44.719Z,17.75
2018-08-28T16:00:13.484Z,19.03
2018-08-28T16:02:41.597Z,18.87
2018-08-28T16:05:12.404Z,18.56
2018-08-28T16:07:42.998Z,18.32
2018-08-28T16:10:13.287Z,17.85
2018-08-28T16:12:41.678Z,18.60
2018-08-28T16:15:10.884Z,19.12
2018-08-28T16:17:39.920Z,19.74
2018-08-28T16:20:08.907Z,19.48
2018-08-28T16:22:44.160Z,20.08
2018-08-28T16:25:12.688Z,20.20
2018-08-28T16:27:42.081Z,19.93
2018-08-28T16:30:10.573Z,19.96
2018-08-28T16:32:39.432Z,20.65
2018-08-28T16:35:07.860Z,20.23
2018-08-28T16:37:36.585Z,21.72
2018-08-28T16:40:05.795Z,20.82
2018-08-28T16:42:34.164Z,20.52
2018-08-28T16:45:02.960Z,20.98
2018-08-28T16:47:32.265Z,22.28
2018-08-28T16:50:00.682Z,22.28
2018-08-28T16:52:29.325Z,22.55
2018-08-28T16:54:58.022Z,22.54
2018-08-28T16:57:27.290Z,22.64
2018-08-28T16:59:55.888Z,22.61
2018-08-28T17:02:24.475Z,22.82
2018-08-28T17:04:53.125Z,23.84
2018-08-28T17:07:21.634Z,22.81
2018-08-28T17:09:50.119Z,24.23
2018-08-28T17:12:19.266Z,24.93
2018-08-28T17:14:48.366Z,24.93
2018-08-28T17:17:17.124Z,26.33
2018-08-28T17:19:45.568Z,26.50
2018-08-28T17:22:16.978Z,28.74
2018-08-28T17:27:22.856Z,31.94
2018-08-28T17:29:52.110Z,33.07
2018-08-28T17:32:21.969Z,33.12
2018-08-28T17:34:53.919Z,34.26
2018-08-28T17:37:22.820Z,34.70
2018-08-28T17:42:29.648Z,35.71
2018-08-28T17:44:59.640Z,36.17
2018-08-28T17:47:28.433Z,36.48
2018-08-28T17:49:57.170Z,37.13
2018-08-28T17:52:26.234Z,37.85
2018-08-28T17:54:54.905Z,38.30
2018-08-28T17:57:25.569Z,38.41
2018-08-28T17:59:56.938Z,38.49
2018-08-28T18:02:25.237Z,38.85
2018-08-28T18:04:57.096Z,39.88
2018-08-28T18:07:25.804Z,40.11
2018-08-28T18:09:54.216Z,40.38
2018-08-28T18:12:22.642Z,41.06
2018-08-28T18:14:51.607Z,41.10
2018-08-28T18:17:20.536Z,40.91
2018-08-28T18:19:50.800Z,41.85
2018-08-28T18:22:19.811Z,42.54
2018-08-28T18:24:48.147Z,42.48
2018-08-28T18:27:17.035Z,42.75
2018-08-28T18:29:46.068Z,43.12
2018-08-28T18:32:14.445Z,43.42
2018-08-28T18:34:42.870Z,43.30
2018-08-28T18:37:11.271Z,44.05
2018-08-28T18:39:39.716Z,44.83
2018-08-28T18:42:09.459Z,44.47
2018-08-28T18:44:38.678Z,44.10
2018-08-28T18:49:51.953Z,44.51
2018-08-28T18:52:22.583Z,44.75
2018-08-28T18:54:51.434Z,45.30
2018-08-28T18:57:19.664Z,45.51
2018-08-28T18:59:48.519Z,46.40
2018-08-28T19:02:17.568Z,46.47
2018-08-28T19:04:45.920Z,47.21
2018-08-28T19:07:14.470Z,47.32
2018-08-28T19:09:43.368Z,47.02
2018-08-28T19:12:12.009Z,47.09
2018-08-28T19:14:41.636Z,46.90
2018-08-28T19:17:10.431Z,47.13
2018-08-28T19:19:39.963Z,47.54
2018-08-28T19:22:08.823Z,47.30
2018-08-28T19:24:37.346Z,47.71
2018-08-28T19:27:06.561Z,47.02
2018-08-28T19:29:35.181Z,47.41
2018-08-28T19:32:03.711Z,47.66
2018-08-28T19:34:32.521Z,47.65
2018-08-28T19:37:02.098Z,47.73
2018-08-28T19:39:34.098Z,47.90
2018-08-28T19:42:03.277Z,47.78
2018-08-28T19:44:35.023Z,47.86
2018-08-28T19:47:04.241Z,47.89
2018-08-28T19:49:32.549Z,47.90
2018-08-28T19:52:01.472Z,47.71
2018-08-28T19:54:31.300Z,47.86
2018-08-28T19:56:59.969Z,48.09
2018-08-28T19:59:28.458Z,48.59
2018-08-28T20:01:56.802Z,48.57
2018-08-28T20:04:26.027Z,48.28
2018-08-28T20:06:55.038Z,48.69
2018-08-28T20:09:23.448Z,49.23
2018-08-28T20:11:51.885Z,49.64
2018-08-28T20:14:20.724Z,49.74
2018-08-28T20:16:48.919Z,50.58
2018-08-28T20:19:19.588Z,50.61
2018-08-28T20:21:48.131Z,50.66
2018-08-28T20:24:16.511Z,51.21
2018-08-28T20:26:45.372Z,51.47
2018-08-28T20:29:14.014Z,51.88
2018-08-28T20:31:42.660Z,52.35
2018-08-28T20:34:13.796Z,52.49
2018-08-28T20:39:26.678Z,52.50
2018-08-28T20:41:55.094Z,53.34
2018-08-28T20:44:23.691Z,54.79
2018-08-28T20:46:52.484Z,54.93
2018-08-28T20:49:20.872Z,54.42
2018-08-28T20:51:49.325Z,54.72
2018-08-28T20:54:17.958Z,55.11
2018-08-28T20:56:46.324Z,55.04
2018-08-28T20:59:14.812Z,55.94
2018-08-28T21:01:43.409Z,55.99
2018-08-28T21:04:11.605Z,55.69
2018-08-28T21:06:39.914Z,55.58
2018-08-28T21:09:08.507Z,56.44
2018-08-28T21:11:38.211Z,56.39
2018-08-28T21:14:06.635Z,57.33
2018-08-28T21:16:34.961Z,57.89
2018-08-28T21:19:03.285Z,57.84
2018-08-28T21:21:31.629Z,58.13
2018-08-28T21:24:00.151Z,57.81
2018-08-28T21:26:30.025Z,57.75
2018-08-28T21:28:59.535Z,57.76
2018-08-28T21:31:27.882Z,57.74
2018-08-28T21:33:56.275Z,57.67
2018-08-28T21:36:24.576Z,57.98
2018-08-28T21:38:52.944Z,57.72
2018-08-28T21:41:21.266Z,58.22
2018-08-28T21:43:49.529Z,57.95
2018-08-28T21:46:18.064Z,57.71
2018-08-28T21:48:46.463Z,58.05
2018-08-28T21:51:14.805Z,59.34
2018-08-28T21:53:43.291Z,59.42
2018-08-28T21:56:11.594Z,59.54
2018-08-28T21:58:39.868Z,59.96
2018-08-28T22:01:11.243Z,60.38
2018-08-28T22:03:41.105Z,60.28
2018-08-28T22:06:14.848Z,59.94
2018-08-28T22:08:44.592Z,60.73
2018-08-28T22:11:13.511Z,60.40
2018-08-28T22:13:42.525Z,59.57
2018-08-28T22:16:10.802Z,59.60
2018-08-28T22:18:40.660Z,59.50
2018-08-28T22:21:08.997Z,59.45
2018-08-28T22:23:37.425Z,60.21
2018-08-28T22:26:06.430Z,60.39
2018-08-28T22:28:34.633Z,60.71
2018-08-28T22:31:03.006Z,61.15
2018-08-28T22:33:31.442Z,61.12
2018-08-28T22:36:04.806Z,61.14
2018-08-28T22:38:38.020Z,61.82
2018-08-28T22:41:06.858Z,61.69
2018-08-28T22:43:35.462Z,61.60
2018-08-28T22:46:03.882Z,62.10
2018-08-28T22:48:32.349Z,62.95
2018-08-28T22:51:01.995Z,63.63
2018-08-28T22:53:30.996Z,63.75
2018-08-28T22:55:59.980Z,64.48
2018-08-28T22:58:28.768Z,64.83
2018-08-28T23:00:59.160Z,64.84
2018-08-28T23:03:27.597Z,64.51
2018-08-28T23:05:56.584Z,64.65
2018-08-28T23:08:25.164Z,64.59
2018-08-28T23:10:56.726Z,63.96
2018-08-28T23:13:27.501Z,63.90
2018-08-28T23:15:58.909Z,64.36
2018-08-28T23:18:28.923Z,64.80
2018-08-28T23:20:59.718Z,65.61
2018-08-28T23:23:30.458Z,64.73
2018-08-28T23:25:58.824Z,65.21
2018-08-28T23:28:28.032Z,65.24
2018-08-28T23:30:56.853Z,65.52
2018-08-28T23:33:25.964Z,65.52
2018-08-28T23:35:54.356Z,65.31
2018-08-28T23:38:23.648Z,65.69
2018-08-28T23:40:52.000Z,65.95
2018-08-28T23:43:21.234Z,66.93
2018-08-28T23:45:49.716Z,67.20
2018-08-28T23:48:18.515Z,67.10
2018-08-28T23:50:46.978Z,67.27
2018-08-28T23:53:15.435Z,67.26
2018-08-28T23:55:44.345Z,67.10
2018-08-28T23:58:12.665Z,67.39
